sensor_id;sensor_type;location;lat;lon;timestamp;temperature;humidity
1958;DHT22;979;51.076;13.748;2023-08-06T00:00:07;19.10;90.50
1958;DHT22;979;51.076;13.748;2023-08-06T00:02:37;19.10;90.40
1958;DHT22;979;51.076;13.748;2023-08-06T00:05:06;19.10;90.60
1958;DHT22;979;51.076;13.748;2023-08-06T00:07:37;19.10;90.60
1958;DHT22;979;51.076;13.748;2023-08-06T00:10:06;19.10;90.70
1958;DHT22;979;51.076;13.748;2023-08-06T00:12:35;19.10;90.70
1958;DHT22;979;51.076;13.748;2023-08-06T00:15:06;19.10;90.90
1958;DHT22;979;51.076;13.748;2023-08-06T00:17:39;19.10;90.90
1958;DHT22;979;51.076;13.748;2023-08-06T00:20:08;19.10;90.90
1958;DHT22;979;51.076;13.748;2023-08-06T00:22:44;19.00;91.00
1958;DHT22;979;51.076;13.748;2023-08-06T00:25:12;19.00;91.00
1958;DHT22;979;51.076;13.748;2023-08-06T00:27:42;19.00;91.10
1958;DHT22;979;51.076;13.748;2023-08-06T00:30:13;19.00;91.10
1958;DHT22;979;51.076;13.748;2023-08-06T00:32:43;19.00;91.20
1958;DHT22;979;51.076;13.748;2023-08-06T00:35:14;19.00;91.20
1958;DHT22;979;51.076;13.748;2023-08-06T00:37:52;19.00;91.30
1958;DHT22;979;51.076;13.748;2023-08-06T00:40:26;18.90;91.30
1958;DHT22;979;51.076;13.748;2023-08-06T00:42:55;18.90;91.30
1958;DHT22;979;51.076;13.748;2023-08-06T00:45:25;18.90;91.40
1958;DHT22;979;51.076;13.748;2023-08-06T00:47:58;18.90;91.50
1958;DHT22;979;51.076;13.748;2023-08-06T00:50:27;18.70;91.60
1958;DHT22;979;51.076;13.748;2023-08-06T00:52:55;18.90;91.70
1958;DHT22;979;51.076;13.748;2023-08-06T00:55:24;18.90;91.80
1958;DHT22;979;51.076;13.748;2023-08-06T00:57:53;18.80;91.90
1958;DHT22;979;51.076;13.748;2023-08-06T01:00:26;18.80;92.00
1958;DHT22;979;51.076;13.748;2023-08-06T01:02:59;18.80;92.30
1958;DHT22;979;51.076;13.748;2023-08-06T01:05:28;18.80;92.30
1958;DHT22;979;51.076;13.748;2023-08-06T01:08:15;18.80;92.50
1958;DHT22;979;51.076;13.748;2023-08-06T01:10:51;18.80;92.50
1958;DHT22;979;51.076;13.748;2023-08-06T01:13:27;18.80;92.60
1958;DHT22;979;51.076;13.748;2023-08-06T01:15:59;18.80;92.60
1958;DHT22;979;51.076;13.748;2023-08-06T01:18:29;18.80;92.70
1958;DHT22;979;51.076;13.748;2023-08-06T01:21:03;18.80;92.90
1958;DHT22;979;51.076;13.748;2023-08-06T01:23:39;18.80;93.20
1958;DHT22;979;51.076;13.748;2023-08-06T01:26:14;18.80;93.00
1958;DHT22;979;51.076;13.748;2023-08-06T01:28:56;18.90;93.10
1958;DHT22;979;51.076;13.748;2023-08-06T01:31:31;18.80;93.00
1958;DHT22;979;51.076;13.748;2023-08-06T01:34:05;18.80;93.30
1958;DHT22;979;51.076;13.748;2023-08-06T01:36:41;18.80;93.10
1958;DHT22;979;51.076;13.748;2023-08-06T01:39:22;18.80;93.10
1958;DHT22;979;51.076;13.748;2023-08-06T01:42:03;18.80;93.10
1958;DHT22;979;51.076;13.748;2023-08-06T01:44:32;18.80;93.00
1958;DHT22;979;51.076;13.748;2023-08-06T01:47:00;18.80;92.90
1958;DHT22;979;51.076;13.748;2023-08-06T01:49:29;18.70;92.90
1958;DHT22;979;51.076;13.748;2023-08-06T01:52:15;18.70;93.10
1958;DHT22;979;51.076;13.748;2023-08-06T01:54:54;18.70;93.20
1958;DHT22;979;51.076;13.748;2023-08-06T01:57:26;18.50;93.10
1958;DHT22;979;51.076;13.748;2023-08-06T02:00:02;18.60;93.20
1958;DHT22;979;51.076;13.748;2023-08-06T02:02:38;18.60;93.30
1958;DHT22;979;51.076;13.748;2023-08-06T02:05:14;18.60;93.50
1958;DHT22;979;51.076;13.748;2023-08-06T02:07:51;18.80;93.90
1958;DHT22;979;51.076;13.748;2023-08-06T02:10:25;18.60;93.80
1958;DHT22;979;51.076;13.748;2023-08-06T02:13:03;18.50;93.90
1958;DHT22;979;51.076;13.748;2023-08-06T02:15:34;18.70;93.80
1958;DHT22;979;51.076;13.748;2023-08-06T02:18:12;18.70;93.90
1958;DHT22;979;51.076;13.748;2023-08-06T02:20:41;18.70;93.80
1958;DHT22;979;51.076;13.748;2023-08-06T02:23:11;18.70;93.70
1958;DHT22;979;51.076;13.748;2023-08-06T02:25:39;18.80;94.00
1958;DHT22;979;51.076;13.748;2023-08-06T02:28:08;18.70;94.00
1958;DHT22;979;51.076;13.748;2023-08-06T02:30:50;18.70;94.20
1958;DHT22;979;51.076;13.748;2023-08-06T02:33:18;18.70;94.00
1958;DHT22;979;51.076;13.748;2023-08-06T02:35:47;18.70;94.00
1958;DHT22;979;51.076;13.748;2023-08-06T02:38:21;18.70;94.10
1958;DHT22;979;51.076;13.748;2023-08-06T02:40:51;18.70;94.20
1958;DHT22;979;51.076;13.748;2023-08-06T02:43:19;18.60;94.40
1958;DHT22;979;51.076;13.748;2023-08-06T02:45:48;18.60;94.70
1958;DHT22;979;51.076;13.748;2023-08-06T02:48:16;18.60;94.80
1958;DHT22;979;51.076;13.748;2023-08-06T02:50:45;18.60;95.00
1958;DHT22;979;51.076;13.748;2023-08-06T02:53:13;18.60;95.10
1958;DHT22;979;51.076;13.748;2023-08-06T02:55:47;18.60;95.20
1958;DHT22;979;51.076;13.748;2023-08-06T02:58:20;18.60;95.30
1958;DHT22;979;51.076;13.748;2023-08-06T03:01:03;18.60;95.20
1958;DHT22;979;51.076;13.748;2023-08-06T03:03:40;18.60;95.20
1958;DHT22;979;51.076;13.748;2023-08-06T03:06:11;18.60;95.00
1958;DHT22;979;51.076;13.748;2023-08-06T03:08:47;18.60;95.10
1958;DHT22;979;51.076;13.748;2023-08-06T03:11:17;18.60;95.00
1958;DHT22;979;51.076;13.748;2023-08-06T03:13:47;18.60;95.20
1958;DHT22;979;51.076;13.748;2023-08-06T03:16:20;18.60;95.30
1958;DHT22;979;51.076;13.748;2023-08-06T03:18:49;18.60;95.20
1958;DHT22;979;51.076;13.748;2023-08-06T03:21:22;18.60;95.30
1958;DHT22;979;51.076;13.748;2023-08-06T03:23:56;18.60;95.50
1958;DHT22;979;51.076;13.748;2023-08-06T03:26:33;18.60;95.40
1958;DHT22;979;51.076;13.748;2023-08-06T03:29:05;18.60;95.60
1958;DHT22;979;51.076;13.748;2023-08-06T03:31:34;18.60;95.60
1958;DHT22;979;51.076;13.748;2023-08-06T03:34:04;18.60;95.80
1958;DHT22;979;51.076;13.748;2023-08-06T03:36:32;18.60;95.80
1958;DHT22;979;51.076;13.748;2023-08-06T03:39:01;18.70;96.00
1958;DHT22;979;51.076;13.748;2023-08-06T03:41:32;18.60;96.00
1958;DHT22;979;51.076;13.748;2023-08-06T03:44:09;18.60;95.90
1958;DHT22;979;51.076;13.748;2023-08-06T03:46:37;18.60;96.00
1958;DHT22;979;51.076;13.748;2023-08-06T03:49:07;18.60;96.00
1958;DHT22;979;51.076;13.748;2023-08-06T03:51:36;18.70;96.30
1958;DHT22;979;51.076;13.748;2023-08-06T03:54:04;18.60;96.40
1958;DHT22;979;51.076;13.748;2023-08-06T03:56:34;18.70;96.50
1958;DHT22;979;51.076;13.748;2023-08-06T03:59:02;18.70;96.50
1958;DHT22;979;51.076;13.748;2023-08-06T04:01:30;18.70;96.40
1958;DHT22;979;51.076;13.748;2023-08-06T04:03:58;18.70;96.40
1958;DHT22;979;51.076;13.748;2023-08-06T04:06:27;18.70;96.30
1958;DHT22;979;51.076;13.748;2023-08-06T04:08:55;18.70;96.40
1958;DHT22;979;51.076;13.748;2023-08-06T04:11:23;18.70;96.40
1958;DHT22;979;51.076;13.748;2023-08-06T04:13:53;18.70;96.30
1958;DHT22;979;51.076;13.748;2023-08-06T04:16:24;18.70;96.30
1958;DHT22;979;51.076;13.748;2023-08-06T04:18:54;18.70;96.20
1958;DHT22;979;51.076;13.748;2023-08-06T04:21:23;18.70;96.30
1958;DHT22;979;51.076;13.748;2023-08-06T04:23:53;18.70;96.20
1958;DHT22;979;51.076;13.748;2023-08-06T04:26:22;18.70;96.20
1958;DHT22;979;51.076;13.748;2023-08-06T04:28:53;18.70;96.20
1958;DHT22;979;51.076;13.748;2023-08-06T04:31:22;18.70;96.20
1958;DHT22;979;51.076;13.748;2023-08-06T04:33:51;18.70;96.20
1958;DHT22;979;51.076;13.748;2023-08-06T04:36:19;18.70;96.10
1958;DHT22;979;51.076;13.748;2023-08-06T04:38:50;18.70;96.10
1958;DHT22;979;51.076;13.748;2023-08-06T04:41:18;18.70;96.10
1958;DHT22;979;51.076;13.748;2023-08-06T04:43:49;18.70;96.00
1958;DHT22;979;51.076;13.748;2023-08-06T04:46:18;18.70;96.00
1958;DHT22;979;51.076;13.748;2023-08-06T04:48:47;18.70;96.10
1958;DHT22;979;51.076;13.748;2023-08-06T04:51:15;18.70;96.00
1958;DHT22;979;51.076;13.748;2023-08-06T04:53:45;18.70;95.90
1958;DHT22;979;51.076;13.748;2023-08-06T04:56:14;18.70;95.90
1958;DHT22;979;51.076;13.748;2023-08-06T04:58:42;18.70;95.80
1958;DHT22;979;51.076;13.748;2023-08-06T05:01:10;18.70;95.80
1958;DHT22;979;51.076;13.748;2023-08-06T05:03:40;18.70;95.70
1958;DHT22;979;51.076;13.748;2023-08-06T05:06:08;18.80;95.70
1958;DHT22;979;51.076;13.748;2023-08-06T05:08:39;18.80;95.50
1958;DHT22;979;51.076;13.748;2023-08-06T05:11:09;18.80;95.40
1958;DHT22;979;51.076;13.748;2023-08-06T05:13:38;18.80;95.60
1958;DHT22;979;51.076;13.748;2023-08-06T05:16:06;18.80;95.20
1958;DHT22;979;51.076;13.748;2023-08-06T05:18:34;18.80;95.20
1958;DHT22;979;51.076;13.748;2023-08-06T05:21:06;18.90;95.20
1958;DHT22;979;51.076;13.748;2023-08-06T05:23:34;18.90;95.10
1958;DHT22;979;51.076;13.748;2023-08-06T05:26:02;18.90;95.00
1958;DHT22;979;51.076;13.748;2023-08-06T05:28:32;18.90;94.80
1958;DHT22;979;51.076;13.748;2023-08-06T05:31:03;19.00;94.70
1958;DHT22;979;51.076;13.748;2023-08-06T05:33:31;19.00;94.50
1958;DHT22;979;51.076;13.748;2023-08-06T05:36:00;19.10;94.50
1958;DHT22;979;51.076;13.748;2023-08-06T05:38:31;19.10;94.30
1958;DHT22;979;51.076;13.748;2023-08-06T05:41:00;19.10;94.30
1958;DHT22;979;51.076;13.748;2023-08-06T05:43:30;19.10;94.30
1958;DHT22;979;51.076;13.748;2023-08-06T05:46:01;19.20;94.30
1958;DHT22;979;51.076;13.748;2023-08-06T05:48:31;19.20;94.20
1958;DHT22;979;51.076;13.748;2023-08-06T05:50:59;19.20;94.10
1958;DHT22;979;51.076;13.748;2023-08-06T05:53:28;19.20;94.00
1958;DHT22;979;51.076;13.748;2023-08-06T05:55:57;19.30;93.90
1958;DHT22;979;51.076;13.748;2023-08-06T05:58:25;19.30;93.90
1958;DHT22;979;51.076;13.748;2023-08-06T06:00:56;19.30;93.80
1958;DHT22;979;51.076;13.748;2023-08-06T06:03:24;19.40;93.70
1958;DHT22;979;51.076;13.748;2023-08-06T06:05:52;19.40;93.70
1958;DHT22;979;51.076;13.748;2023-08-06T06:08:23;19.40;93.60
1958;DHT22;979;51.076;13.748;2023-08-06T06:10:51;19.50;93.50
1958;DHT22;979;51.076;13.748;2023-08-06T06:13:22;19.50;93.40
1958;DHT22;979;51.076;13.748;2023-08-06T06:15:54;19.50;93.30
1958;DHT22;979;51.076;13.748;2023-08-06T06:18:22;19.60;93.20
1958;DHT22;979;51.076;13.748;2023-08-06T06:20:53;19.60;93.20
1958;DHT22;979;51.076;13.748;2023-08-06T06:23:21;19.60;93.10
1958;DHT22;979;51.076;13.748;2023-08-06T06:25:50;19.60;93.00
1958;DHT22;979;51.076;13.748;2023-08-06T06:28:22;19.70;93.10
1958;DHT22;979;51.076;13.748;2023-08-06T06:30:51;19.70;93.10
1958;DHT22;979;51.076;13.748;2023-08-06T06:33:19;19.80;93.10
1958;DHT22;979;51.076;13.748;2023-08-06T06:35:49;19.80;93.10
1958;DHT22;979;51.076;13.748;2023-08-06T06:38:17;19.90;93.10
1958;DHT22;979;51.076;13.748;2023-08-06T06:40:53;19.90;93.00
1958;DHT22;979;51.076;13.748;2023-08-06T06:43:26;19.90;92.80
1958;DHT22;979;51.076;13.748;2023-08-06T06:45:56;20.00;92.80
1958;DHT22;979;51.076;13.748;2023-08-06T06:48:26;20.00;92.60
1958;DHT22;979;51.076;13.748;2023-08-06T06:50:54;20.00;92.50
1958;DHT22;979;51.076;13.748;2023-08-06T06:53:23;20.10;92.50
1958;DHT22;979;51.076;13.748;2023-08-06T06:55:54;20.10;92.40
1958;DHT22;979;51.076;13.748;2023-08-06T06:58:22;20.20;92.30
1958;DHT22;979;51.076;13.748;2023-08-06T07:00:54;20.20;92.20
1958;DHT22;979;51.076;13.748;2023-08-06T07:03:23;20.30;92.20
1958;DHT22;979;51.076;13.748;2023-08-06T07:05:51;20.30;92.10
1958;DHT22;979;51.076;13.748;2023-08-06T07:08:21;20.40;92.00
1958;DHT22;979;51.076;13.748;2023-08-06T07:10:59;20.40;92.00
1958;DHT22;979;51.076;13.748;2023-08-06T07:13:28;20.50;91.90
1958;DHT22;979;51.076;13.748;2023-08-06T07:15:58;20.60;91.90
1958;DHT22;979;51.076;13.748;2023-08-06T07:18:26;20.60;91.80
1958;DHT22;979;51.076;13.748;2023-08-06T07:20:55;20.60;91.70
1958;DHT22;979;51.076;13.748;2023-08-06T07:23:25;20.70;91.60
1958;DHT22;979;51.076;13.748;2023-08-06T07:25:53;20.70;91.40
1958;DHT22;979;51.076;13.748;2023-08-06T07:28:21;20.80;91.40
1958;DHT22;979;51.076;13.748;2023-08-06T07:30:51;20.80;91.30
1958;DHT22;979;51.076;13.748;2023-08-06T07:33:23;20.90;91.30
1958;DHT22;979;51.076;13.748;2023-08-06T07:35:51;20.90;91.10
1958;DHT22;979;51.076;13.748;2023-08-06T07:38:19;20.90;90.90
1958;DHT22;979;51.076;13.748;2023-08-06T07:40:51;20.90;90.80
1958;DHT22;979;51.076;13.748;2023-08-06T07:43:19;20.90;90.70
1958;DHT22;979;51.076;13.748;2023-08-06T07:45:47;20.80;90.50
1958;DHT22;979;51.076;13.748;2023-08-06T07:48:17;20.70;90.50
1958;DHT22;979;51.076;13.748;2023-08-06T07:50:51;20.70;90.60
1958;DHT22;979;51.076;13.748;2023-08-06T07:53:20;20.60;90.60
1958;DHT22;979;51.076;13.748;2023-08-06T07:55:50;20.60;90.60
1958;DHT22;979;51.076;13.748;2023-08-06T07:58:19;20.50;90.40
1958;DHT22;979;51.076;13.748;2023-08-06T08:00:47;20.40;90.40
1958;DHT22;979;51.076;13.748;2023-08-06T08:03:18;20.40;90.50
1958;DHT22;979;51.076;13.748;2023-08-06T08:05:49;20.30;90.50
1958;DHT22;979;51.076;13.748;2023-08-06T08:08:19;20.20;90.40
1958;DHT22;979;51.076;13.748;2023-08-06T08:10:47;20.10;90.40
1958;DHT22;979;51.076;13.748;2023-08-06T08:13:16;20.00;90.40
1958;DHT22;979;51.076;13.748;2023-08-06T08:15:44;19.90;90.40
1958;DHT22;979;51.076;13.748;2023-08-06T08:18:12;19.80;90.70
1958;DHT22;979;51.076;13.748;2023-08-06T08:20:40;19.90;90.90
1958;DHT22;979;51.076;13.748;2023-08-06T08:23:12;19.90;91.00
1958;DHT22;979;51.076;13.748;2023-08-06T08:25:40;20.00;91.00
1958;DHT22;979;51.076;13.748;2023-08-06T08:28:09;20.00;90.80
1958;DHT22;979;51.076;13.748;2023-08-06T08:30:40;20.10;90.70
1958;DHT22;979;51.076;13.748;2023-08-06T08:33:11;20.20;90.50
1958;DHT22;979;51.076;13.748;2023-08-06T08:35:39;20.20;90.30
1958;DHT22;979;51.076;13.748;2023-08-06T08:38:08;20.10;90.20
1958;DHT22;979;51.076;13.748;2023-08-06T08:40:44;20.10;90.10
1958;DHT22;979;51.076;13.748;2023-08-06T08:43:14;20.10;90.00
1958;DHT22;979;51.076;13.748;2023-08-06T08:45:44;20.20;90.00
1958;DHT22;979;51.076;13.748;2023-08-06T08:48:17;20.00;90.00
1958;DHT22;979;51.076;13.748;2023-08-06T08:50:47;20.20;90.10
1958;DHT22;979;51.076;13.748;2023-08-06T08:53:19;20.30;90.20
1958;DHT22;979;51.076;13.748;2023-08-06T08:55:50;20.40;90.20
1958;DHT22;979;51.076;13.748;2023-08-06T08:58:19;20.40;90.20
1958;DHT22;979;51.076;13.748;2023-08-06T09:00:47;20.50;90.00
1958;DHT22;979;51.076;13.748;2023-08-06T09:03:16;20.50;89.80
1958;DHT22;979;51.076;13.748;2023-08-06T09:05:45;20.60;89.40
1958;DHT22;979;51.076;13.748;2023-08-06T09:08:19;20.50;88.80
1958;DHT22;979;51.076;13.748;2023-08-06T09:10:50;20.50;88.30
1958;DHT22;979;51.076;13.748;2023-08-06T09:13:21;20.40;88.30
1958;DHT22;979;51.076;13.748;2023-08-06T09:15:50;20.30;88.50
1958;DHT22;979;51.076;13.748;2023-08-06T09:18:25;20.20;88.50
1958;DHT22;979;51.076;13.748;2023-08-06T09:20:57;20.10;88.30
1958;DHT22;979;51.076;13.748;2023-08-06T09:23:28;20.10;88.50
1958;DHT22;979;51.076;13.748;2023-08-06T09:25:59;20.10;88.80
1958;DHT22;979;51.076;13.748;2023-08-06T09:28:37;20.10;88.90
1958;DHT22;979;51.076;13.748;2023-08-06T09:31:10;20.10;88.60
1958;DHT22;979;51.076;13.748;2023-08-06T09:33:52;20.00;88.50
1958;DHT22;979;51.076;13.748;2023-08-06T09:36:53;20.00;89.30
1958;DHT22;979;51.076;13.748;2023-08-06T09:39:49;20.00;89.20
1958;DHT22;979;51.076;13.748;2023-08-06T09:43:24;19.70;89.30
1958;DHT22;979;51.076;13.748;2023-08-06T09:46:19;20.20;89.60
1958;DHT22;979;51.076;13.748;2023-08-06T09:49:04;20.30;90.00
1958;DHT22;979;51.076;13.748;2023-08-06T09:51:44;20.50;90.10
1958;DHT22;979;51.076;13.748;2023-08-06T09:54:15;20.60;89.40
1958;DHT22;979;51.076;13.748;2023-08-06T09:56:54;20.70;89.20
1958;DHT22;979;51.076;13.748;2023-08-06T09:59:24;20.70;88.80
1958;DHT22;979;51.076;13.748;2023-08-06T10:01:54;20.80;88.70
1958;DHT22;979;51.076;13.748;2023-08-06T10:04:24;20.90;88.50
1958;DHT22;979;51.076;13.748;2023-08-06T10:07:01;21.00;88.40
1958;DHT22;979;51.076;13.748;2023-08-06T10:09:29;21.00;88.40
1958;DHT22;979;51.076;13.748;2023-08-06T10:12:00;21.10;88.10
1958;DHT22;979;51.076;13.748;2023-08-06T10:14:33;21.20;88.00
1958;DHT22;979;51.076;13.748;2023-08-06T10:17:02;21.30;87.60
1958;DHT22;979;51.076;13.748;2023-08-06T10:19:32;21.30;87.30
1958;DHT22;979;51.076;13.748;2023-08-06T10:22:16;21.30;87.60
1958;DHT22;979;51.076;13.748;2023-08-06T10:24:49;21.30;87.30
1958;DHT22;979;51.076;13.748;2023-08-06T10:27:21;21.40;86.90
1958;DHT22;979;51.076;13.748;2023-08-06T10:29:51;21.50;86.80
1958;DHT22;979;51.076;13.748;2023-08-06T10:32:21;21.60;86.10
1958;DHT22;979;51.076;13.748;2023-08-06T10:34:57;21.80;85.90
1958;DHT22;979;51.076;13.748;2023-08-06T10:37:35;21.40;85.40
1958;DHT22;979;51.076;13.748;2023-08-06T10:40:07;21.40;85.60
1958;DHT22;979;51.076;13.748;2023-08-06T10:42:35;21.30;85.50
1958;DHT22;979;51.076;13.748;2023-08-06T10:45:14;21.30;85.70
1958;DHT22;979;51.076;13.748;2023-08-06T10:47:45;21.40;85.80
1958;DHT22;979;51.076;13.748;2023-08-06T10:50:17;21.50;86.10
1958;DHT22;979;51.076;13.748;2023-08-06T10:52:47;21.70;86.30
1958;DHT22;979;51.076;13.748;2023-08-06T10:55:22;21.90;86.30
1958;DHT22;979;51.076;13.748;2023-08-06T10:57:55;22.10;85.70
1958;DHT22;979;51.076;13.748;2023-08-06T11:00:25;22.30;85.40
1958;DHT22;979;51.076;13.748;2023-08-06T11:02:53;22.50;84.90
1958;DHT22;979;51.076;13.748;2023-08-06T11:05:22;22.50;84.40
1958;DHT22;979;51.076;13.748;2023-08-06T11:07:50;22.40;83.90
1958;DHT22;979;51.076;13.748;2023-08-06T11:10:19;22.40;83.90
1958;DHT22;979;51.076;13.748;2023-08-06T11:12:47;22.30;84.00
1958;DHT22;979;51.076;13.748;2023-08-06T11:15:16;22.30;83.90
1958;DHT22;979;51.076;13.748;2023-08-06T11:17:45;22.40;83.70
1958;DHT22;979;51.076;13.748;2023-08-06T11:20:16;22.40;83.20
1958;DHT22;979;51.076;13.748;2023-08-06T11:22:44;22.50;82.60
1958;DHT22;979;51.076;13.748;2023-08-06T11:25:12;22.60;82.40
1958;DHT22;979;51.076;13.748;2023-08-06T11:27:43;22.70;82.40
1958;DHT22;979;51.076;13.748;2023-08-06T11:30:11;22.80;82.10
1958;DHT22;979;51.076;13.748;2023-08-06T11:32:47;22.90;81.80
1958;DHT22;979;51.076;13.748;2023-08-06T11:35:17;23.10;81.20
1958;DHT22;979;51.076;13.748;2023-08-06T11:37:46;23.10;80.40
1958;DHT22;979;51.076;13.748;2023-08-06T11:40:15;23.10;80.20
1958;DHT22;979;51.076;13.748;2023-08-06T11:42:46;23.00;79.60
1958;DHT22;979;51.076;13.748;2023-08-06T11:45:15;22.90;79.80
1958;DHT22;979;51.076;13.748;2023-08-06T11:47:51;23.00;80.00
1958;DHT22;979;51.076;13.748;2023-08-06T11:50:24;22.90;79.60
1958;DHT22;979;51.076;13.748;2023-08-06T11:52:57;22.90;79.40
1958;DHT22;979;51.076;13.748;2023-08-06T11:55:28;23.10;79.40
1958;DHT22;979;51.076;13.748;2023-08-06T11:58:04;23.10;79.20
1958;DHT22;979;51.076;13.748;2023-08-06T12:00:33;23.10;79.00
1958;DHT22;979;51.076;13.748;2023-08-06T12:03:05;23.20;79.30
1958;DHT22;979;51.076;13.748;2023-08-06T12:05:37;23.40;79.00
1958;DHT22;979;51.076;13.748;2023-08-06T12:08:09;23.30;78.60
1958;DHT22;979;51.076;13.748;2023-08-06T12:10:37;23.50;78.50
1958;DHT22;979;51.076;13.748;2023-08-06T12:13:06;23.60;78.20
1958;DHT22;979;51.076;13.748;2023-08-06T12:15:37;23.60;77.80
1958;DHT22;979;51.076;13.748;2023-08-06T12:18:07;23.50;77.50
1958;DHT22;979;51.076;13.748;2023-08-06T12:20:37;23.30;77.00
1958;DHT22;979;51.076;13.748;2023-08-06T12:23:05;23.20;77.20
1958;DHT22;979;51.076;13.748;2023-08-06T12:25:35;23.20;77.30
1958;DHT22;979;51.076;13.748;2023-08-06T12:28:04;23.10;77.30
1958;DHT22;979;51.076;13.748;2023-08-06T12:30:34;23.00;77.70
1958;DHT22;979;51.076;13.748;2023-08-06T12:33:03;23.00;77.40
1958;DHT22;979;51.076;13.748;2023-08-06T12:35:33;23.00;77.00
1958;DHT22;979;51.076;13.748;2023-08-06T12:38:01;22.90;77.10
1958;DHT22;979;51.076;13.748;2023-08-06T12:40:32;22.90;77.20
1958;DHT22;979;51.076;13.748;2023-08-06T12:43:05;23.00;77.30
1958;DHT22;979;51.076;13.748;2023-08-06T12:45:34;23.10;77.40
1958;DHT22;979;51.076;13.748;2023-08-06T12:48:04;23.20;77.00
1958;DHT22;979;51.076;13.748;2023-08-06T12:50:34;23.20;76.80
1958;DHT22;979;51.076;13.748;2023-08-06T12:53:02;23.20;76.70
1958;DHT22;979;51.076;13.748;2023-08-06T12:55:34;23.20;76.60
1958;DHT22;979;51.076;13.748;2023-08-06T12:58:02;23.30;76.50
1958;DHT22;979;51.076;13.748;2023-08-06T13:00:30;23.30;76.40
1958;DHT22;979;51.076;13.748;2023-08-06T13:02:59;23.30;76.00
1958;DHT22;979;51.076;13.748;2023-08-06T13:05:27;23.40;76.00
1958;DHT22;979;51.076;13.748;2023-08-06T13:07:57;23.40;75.90
1958;DHT22;979;51.076;13.748;2023-08-06T13:10:25;23.40;75.60
1958;DHT22;979;51.076;13.748;2023-08-06T13:12:58;23.50;75.60
1958;DHT22;979;51.076;13.748;2023-08-06T13:15:26;23.50;75.50
1958;DHT22;979;51.076;13.748;2023-08-06T13:17:54;23.50;75.60
1958;DHT22;979;51.076;13.748;2023-08-06T13:20:24;23.50;75.50
1958;DHT22;979;51.076;13.748;2023-08-06T13:22:58;23.50;75.00
1958;DHT22;979;51.076;13.748;2023-08-06T13:25:28;23.60;75.20
1958;DHT22;979;51.076;13.748;2023-08-06T13:27:58;23.70;75.10
1958;DHT22;979;51.076;13.748;2023-08-06T13:30:26;23.80;75.00
1958;DHT22;979;51.076;13.748;2023-08-06T13:32:55;24.00;75.10
1958;DHT22;979;51.076;13.748;2023-08-06T13:35:23;24.10;74.90
1958;DHT22;979;51.076;13.748;2023-08-06T13:37:51;24.30;74.90
1958;DHT22;979;51.076;13.748;2023-08-06T13:40:22;24.50;74.50
1958;DHT22;979;51.076;13.748;2023-08-06T13:42:52;24.70;73.90
1958;DHT22;979;51.076;13.748;2023-08-06T13:45:21;24.80;73.20
1958;DHT22;979;51.076;13.748;2023-08-06T13:47:49;24.90;73.30
1958;DHT22;979;51.076;13.748;2023-08-06T13:50:17;25.10;72.80
1958;DHT22;979;51.076;13.748;2023-08-06T13:52:46;25.00;71.90
1958;DHT22;979;51.076;13.748;2023-08-06T13:55:14;25.00;71.60
1958;DHT22;979;51.076;13.748;2023-08-06T13:57:44;25.00;71.50
1958;DHT22;979;51.076;13.748;2023-08-06T14:00:13;25.00;71.80
1958;DHT22;979;51.076;13.748;2023-08-06T14:02:41;25.10;71.40
1958;DHT22;979;51.076;13.748;2023-08-06T14:05:12;25.20;71.40
1958;DHT22;979;51.076;13.748;2023-08-06T14:07:40;25.10;70.50
1958;DHT22;979;51.076;13.748;2023-08-06T14:10:09;25.10;70.50
1958;DHT22;979;51.076;13.748;2023-08-06T14:12:39;25.00;70.70
1958;DHT22;979;51.076;13.748;2023-08-06T14:15:25;25.00;70.80
1958;DHT22;979;51.076;13.748;2023-08-06T14:17:55;24.90;71.10
1958;DHT22;979;51.076;13.748;2023-08-06T14:20:26;24.90;71.30
1958;DHT22;979;51.076;13.748;2023-08-06T14:22:55;24.90;71.30
1958;DHT22;979;51.076;13.748;2023-08-06T14:25:23;24.80;71.30
1958;DHT22;979;51.076;13.748;2023-08-06T14:27:51;24.90;71.30
1958;DHT22;979;51.076;13.748;2023-08-06T14:30:19;24.90;71.20
1958;DHT22;979;51.076;13.748;2023-08-06T14:32:49;24.80;70.90
1958;DHT22;979;51.076;13.748;2023-08-06T14:35:18;24.80;71.00
1958;DHT22;979;51.076;13.748;2023-08-06T14:37:46;24.80;71.00
1958;DHT22;979;51.076;13.748;2023-08-06T14:40:14;24.90;71.20
1958;DHT22;979;51.076;13.748;2023-08-06T14:42:43;25.00;71.20
1958;DHT22;979;51.076;13.748;2023-08-06T14:45:13;25.10;71.10
1958;DHT22;979;51.076;13.748;2023-08-06T14:47:42;25.10;70.90
1958;DHT22;979;51.076;13.748;2023-08-06T14:50:11;24.90;71.90
1958;DHT22;979;51.076;13.748;2023-08-06T14:52:40;24.80;71.20
1958;DHT22;979;51.076;13.748;2023-08-06T14:55:10;24.80;71.50
1958;DHT22;979;51.076;13.748;2023-08-06T14:57:39;24.80;71.60
1958;DHT22;979;51.076;13.748;2023-08-06T15:00:08;24.90;71.60
1958;DHT22;979;51.076;13.748;2023-08-06T15:02:39;24.90;71.50
1958;DHT22;979;51.076;13.748;2023-08-06T15:05:08;25.00;71.70
1958;DHT22;979;51.076;13.748;2023-08-06T15:07:39;25.00;71.50
1958;DHT22;979;51.076;13.748;2023-08-06T15:10:07;25.00;71.60
1958;DHT22;979;51.076;13.748;2023-08-06T15:12:38;25.10;71.70
1958;DHT22;979;51.076;13.748;2023-08-06T15:15:08;25.10;71.40
1958;DHT22;979;51.076;13.748;2023-08-06T15:17:38;25.20;71.20
1958;DHT22;979;51.076;13.748;2023-08-06T15:20:08;25.30;71.50
1958;DHT22;979;51.076;13.748;2023-08-06T15:22:40;25.20;71.50
1958;DHT22;979;51.076;13.748;2023-08-06T15:25:08;25.10;71.70
1958;DHT22;979;51.076;13.748;2023-08-06T15:27:39;25.00;71.90
1958;DHT22;979;51.076;13.748;2023-08-06T15:30:08;24.80;72.10
1958;DHT22;979;51.076;13.748;2023-08-06T15:32:36;24.60;72.00
1958;DHT22;979;51.076;13.748;2023-08-06T15:35:06;24.50;72.50
1958;DHT22;979;51.076;13.748;2023-08-06T15:37:35;24.30;72.80
1958;DHT22;979;51.076;13.748;2023-08-06T15:40:06;24.20;73.30
1958;DHT22;979;51.076;13.748;2023-08-06T15:42:35;24.10;73.50
1958;DHT22;979;51.076;13.748;2023-08-06T15:45:06;24.00;73.90
1958;DHT22;979;51.076;13.748;2023-08-06T15:47:37;23.80;73.80
1958;DHT22;979;51.076;13.748;2023-08-06T15:50:10;23.70;74.00
1958;DHT22;979;51.076;13.748;2023-08-06T15:52:39;23.60;74.60
1958;DHT22;979;51.076;13.748;2023-08-06T15:55:09;23.40;74.90
1958;DHT22;979;51.076;13.748;2023-08-06T15:57:37;23.40;75.30
1958;DHT22;979;51.076;13.748;2023-08-06T16:00:07;23.30;75.70
1958;DHT22;979;51.076;13.748;2023-08-06T16:02:38;23.20;75.90
1958;DHT22;979;51.076;13.748;2023-08-06T16:05:06;23.10;77.00
1958;DHT22;979;51.076;13.748;2023-08-06T16:07:35;23.00;76.70
1958;DHT22;979;51.076;13.748;2023-08-06T16:10:04;23.00;77.40
1958;DHT22;979;51.076;13.748;2023-08-06T16:12:34;22.90;77.50
1958;DHT22;979;51.076;13.748;2023-08-06T16:15:02;22.90;77.70
1958;DHT22;979;51.076;13.748;2023-08-06T16:17:31;22.80;77.80
1958;DHT22;979;51.076;13.748;2023-08-06T16:19:59;22.80;78.30
1958;DHT22;979;51.076;13.748;2023-08-06T16:22:27;22.70;78.60
1958;DHT22;979;51.076;13.748;2023-08-06T16:24:55;22.60;78.90